Time;durP1;ratioP1;P1;durP2;ratioP2;P2;SDS_P1;SDS_P2;PMS_P1;PMS_P2;Temp;Humidity;BMP_temperature;BMP_pressure;BME280_temperature;BME280_humidity;BME280_pressure;Samples;Min_cycle;Max_cycle;Signal;HPM_P1;HPM_P2
2021/08/08 00:01:15;;;;;;;1.47;0.60;;;18.40;99.90;;;;;;6247414;28;20188;-70
2021/08/08 00:04:17;;;;;;;0.87;0.67;;;18.40;99.90;;;;;;6248565;28;20583;-71
2021/08/08 00:07:20;;;;;;;0.67;0.60;;;18.40;99.90;;;;;;6223433;28;20639;-71
2021/08/08 00:10:22;;;;;;;0.97;0.60;;;18.40;99.90;;;;;;6244202;28;20199;-71
2021/08/08 00:13:25;;;;;;;0.50;0.47;;;18.40;99.90;;;;;;6248512;28;20206;-70
2021/08/08 00:16:28;;;;;;;0.57;0.50;;;18.40;99.90;;;;;;6263581;28;20234;-70
2021/08/08 00:19:33;;;;;;;1.70;0.53;;;18.40;99.90;;;;;;6248675;28;20196;-69
2021/08/08 00:22:35;;;;;;;1.23;0.60;;;18.40;99.90;;;;;;6248284;28;20184;-70
2021/08/08 00:25:38;;;;;;;4.27;0.80;;;18.30;99.90;;;;;;6247307;28;20198;-69
2021/08/08 00:28:40;;;;;;;0.70;0.60;;;18.30;99.90;;;;;;6248825;28;20192;-71
2021/08/08 00:31:43;;;;;;;0.97;0.70;;;18.30;99.90;;;;;;6248028;28;20188;-69
2021/08/08 00:34:46;;;;;;;1.60;0.60;;;18.20;99.90;;;;;;6246502;28;20323;-69
2021/08/08 00:37:49;;;;;;;1.00;0.60;;;18.30;99.90;;;;;;6246697;28;20273;-68
2021/08/08 00:40:52;;;;;;;2.33;0.70;;;18.30;99.90;;;;;;6263133;28;20196;-68
2021/08/08 00:43:55;;;;;;;2.93;0.70;;;18.30;99.90;;;;;;6246596;28;20678;-69
2021/08/08 00:46:58;;;;;;;2.60;0.87;;;18.20;99.90;;;;;;6247901;28;20199;-69
2021/08/08 00:50:03;;;;;;;2.13;1.10;;;18.10;99.90;;;;;;6246265;28;20200;-69
2021/08/08 00:53:06;;;;;;;2.90;0.80;;;18.00;99.90;;;;;;6262931;28;20679;-69
2021/08/08 00:56:12;;;;;;;0.83;0.80;;;17.90;99.90;;;;;;6246459;28;20232;-69
2021/08/08 00:59:15;;;;;;;0.93;0.80;;;17.70;99.90;;;;;;6246098;28;20279;-71
2021/08/08 01:02:20;;;;;;;0.80;0.80;;;17.60;99.90;;;;;;6246132;28;20192;-70
2021/08/08 01:05:34;;;;;;;0.63;0.63;;;17.60;99.90;;;;;;6246166;28;20200;-71
2021/08/08 01:08:43;;;;;;;0.60;0.60;;;17.50;99.90;;;;;;6262778;28;20673;-70
2021/08/08 01:11:48;;;;;;;1.90;0.80;;;17.40;99.90;;;;;;6245853;28;20232;-70
2021/08/08 01:14:51;;;;;;;0.70;0.70;;;17.40;99.90;;;;;;6245704;28;20223;-70
2021/08/08 01:17:58;;;;;;;0.80;0.80;;;17.30;99.90;;;;;;6245756;28;20195;-71
2021/08/08 01:21:02;;;;;;;1.57;0.70;;;17.30;99.90;;;;;;6245609;28;20196;-71
2021/08/08 01:24:06;;;;;;;1.13;1.00;;;17.20;99.90;;;;;;6246882;28;20188;-71
2021/08/08 01:27:09;;;;;;;1.30;1.00;;;17.20;99.90;;;;;;6246831;28;20190;-71
2021/08/08 01:30:12;;;;;;;1.67;0.80;;;17.10;99.90;;;;;;6245260;28;20574;-71
2021/08/08 01:33:16;;;;;;;1.20;0.90;;;17.10;99.90;;;;;;6245527;28;20195;-70
2021/08/08 01:36:35;;;;;;;1.53;0.80;;;17.10;99.90;;;;;;6246463;28;20217;-71
2021/08/08 01:39:39;;;;;;;1.67;0.70;;;17.10;99.90;;;;;;6261823;28;20196;-71
2021/08/08 01:42:43;;;;;;;0.67;0.67;;;17.10;99.90;;;;;;6245173;28;20753;-71
2021/08/08 01:45:48;;;;;;;2.20;0.83;;;17.10;99.90;;;;;;6261550;28;20211;-71
2021/08/08 01:48:56;;;;;;;0.80;0.80;;;17.10;99.90;;;;;;6245094;28;20227;-70
2021/08/08 01:51:59;;;;;;;0.53;0.53;;;17.10;99.90;;;;;;6244961;28;20196;-70
2021/08/08 01:55:06;;;;;;;0.80;0.80;;;17.10;99.90;;;;;;6246137;28;20204;-70
2021/08/08 01:58:20;;;;;;;1.43;0.70;;;17.10;99.90;;;;;;6246559;28;20188;-70
2021/08/08 02:01:29;;;;;;;0.80;0.80;;;17.10;99.90;;;;;;6244560;28;20200;-70
2021/08/08 02:04:45;;;;;;;1.00;0.90;;;17.10;99.90;;;;;;6244688;28;20219;-70
2021/08/08 02:07:52;;;;;;;2.37;1.20;;;17.10;99.90;;;;;;6236056;28;20210;-71
2021/08/08 02:10:56;;;;;;;1.30;0.97;;;17.10;99.90;;;;;;6240901;28;20200;-70
2021/08/08 02:14:07;;;;;;;1.60;0.80;;;17.00;99.90;;;;;;6260946;28;20668;-70
2021/08/08 02:17:11;;;;;;;1.70;0.80;;;17.00;99.90;;;;;;6245574;28;20233;-70
2021/08/08 02:20:20;;;;;;;1.07;1.00;;;17.10;99.90;;;;;;6244664;28;20215;-70
2021/08/08 02:23:29;;;;;;;1.50;0.93;;;17.00;99.90;;;;;;6244330;28;20660;-71
2021/08/08 02:26:36;;;;;;;1.67;0.70;;;17.00;99.90;;;;;;6244290;28;20622;-71
2021/08/08 02:29:39;;;;;;;1.00;0.90;;;17.00;99.90;;;;;;6244254;28;20200;-71
2021/08/08 02:32:42;;;;;;;0.80;0.50;;;16.90;99.90;;;;;;6245602;28;20184;-70
2021/08/08 02:35:44;;;;;;;0.97;0.83;;;16.90;99.90;;;;;;6244481;28;20695;-71
2021/08/08 02:38:48;;;;;;;0.70;0.67;;;16.90;99.90;;;;;;6244374;28;20256;-70
2021/08/08 02:41:50;;;;;;;0.73;0.70;;;16.90;99.90;;;;;;6243995;28;20199;-70
2021/08/08 02:44:53;;;;;;;0.80;0.67;;;16.90;99.90;;;;;;6243964;28;20214;-71
2021/08/08 02:47:55;;;;;;;0.80;0.80;;;16.90;99.90;;;;;;6243979;28;20215;-70
2021/08/08 02:50:58;;;;;;;0.77;0.77;;;16.80;99.90;;;;;;6260620;28;20667;-70
2021/08/08 02:54:02;;;;;;;0.80;0.80;;;16.80;99.90;;;;;;6244034;28;20659;-71
2021/08/08 02:57:06;;;;;;;1.03;0.90;;;16.90;99.90;;;;;;6260845;28;20193;-71
2021/08/08 03:00:09;;;;;;;1.07;0.80;;;16.80;99.90;;;;;;6260346;28;20196;-71
2021/08/08 03:03:12;;;;;;;0.87;0.63;;;16.80;99.90;;;;;;6260881;28;20192;-70
2021/08/08 03:06:14;;;;;;;0.60;0.60;;;16.80;99.90;;;;;;6243837;28;20571;-70
2021/08/08 03:09:30;;;;;;;3.40;0.90;;;16.80;99.90;;;;;;6243870;28;20200;-71
2021/08/08 03:12:33;;;;;;;1.40;0.50;;;16.80;99.90;;;;;;6243523;28;20200;-70
2021/08/08 03:15:36;;;;;;;0.80;0.70;;;16.80;99.90;;;;;;6244676;28;20243;-70
2021/08/08 03:18:39;;;;;;;1.17;0.80;;;16.80;99.90;;;;;;6244987;28;20326;-70
2021/08/08 03:21:42;;;;;;;1.63;0.80;;;16.70;99.90;;;;;;6248073;28;20188;-71
2021/08/08 03:24:45;;;;;;;0.77;0.70;;;16.70;99.90;;;;;;6264698;28;20203;-71
2021/08/08 03:27:50;;;;;;;0.60;0.60;;;16.70;99.90;;;;;;6248385;28;20196;-71
2021/08/08 03:30:55;;;;;;;0.60;0.60;;;16.70;99.90;;;;;;6248026;28;20203;-71
2021/08/08 03:33:58;;;;;;;0.50;0.50;;;16.70;99.90;;;;;;6248212;28;20196;-71
2021/08/08 03:37:03;;;;;;;0.50;0.50;;;16.60;99.90;;;;;;6247889;28;20253;-71
2021/08/08 03:40:08;;;;;;;0.87;0.57;;;16.60;99.90;;;;;;6264363;28;20281;-71
2021/08/08 03:43:11;;;;;;;0.63;0.63;;;16.60;99.90;;;;;;6247881;28;20202;-71
2021/08/08 03:46:14;;;;;;;1.30;0.60;;;16.50;99.90;;;;;;6248100;28;20194;-71
2021/08/08 03:49:18;;;;;;;1.33;0.70;;;16.40;99.90;;;;;;6264659;28;20184;-71
2021/08/08 03:52:21;;;;;;;2.30;0.50;;;16.40;99.90;;;;;;6248856;28;20199;-70
2021/08/08 03:55:24;;;;;;;1.13;0.60;;;16.40;99.90;;;;;;6247454;28;20208;-71
2021/08/08 03:58:30;;;;;;;0.70;0.70;;;16.40;99.90;;;;;;6247552;28;20184;-71
2021/08/08 04:01:35;;;;;;;1.50;0.60;;;16.50;99.90;;;;;;6247623;28;20189;-70
2021/08/08 04:04:38;;;;;;;0.60;0.53;;;16.50;99.90;;;;;;6247686;28;20204;-72
2021/08/08 04:07:41;;;;;;;1.63;0.60;;;16.60;99.90;;;;;;6248531;28;20200;-71
2021/08/08 04:10:43;;;;;;;0.40;0.40;;;16.60;99.90;;;;;;6246996;28;20670;-71
2021/08/08 04:13:45;;;;;;;0.53;0.37;;;16.70;99.90;;;;;;6247361;28;20204;-70
2021/08/08 04:16:48;;;;;;;1.00;0.70;;;16.70;99.90;;;;;;6263137;28;20318;-71
2021/08/08 04:19:50;;;;;;;1.37;0.57;;;16.70;99.90;;;;;;6246896;28;20180;-70
2021/08/08 04:22:52;;;;;;;0.50;0.40;;;16.80;99.90;;;;;;6246425;28;20278;-70
2021/08/08 04:25:55;;;;;;;0.50;0.50;;;16.90;99.90;;;;;;6263079;28;20192;-71
2021/08/08 04:28:58;;;;;;;1.80;0.50;;;17.00;99.90;;;;;;6263179;28;20219;-70
2021/08/08 04:32:00;;;;;;;0.67;0.47;;;17.00;99.90;;;;;;6245919;28;20239;-71
2021/08/08 04:35:03;;;;;;;1.73;0.53;;;17.00;99.90;;;;;;6247600;28;20242;-71
2021/08/08 04:38:06;;;;;;;1.83;0.50;;;16.90;99.90;;;;;;6263510;28;20223;-70
2021/08/08 04:41:15;;;;;;;1.13;0.50;;;16.90;99.90;;;;;;6263232;28;20686;-71
2021/08/08 04:44:17;;;;;;;1.67;0.70;;;16.80;99.90;;;;;;6246880;28;20559;-71
2021/08/08 04:47:20;;;;;;;0.93;0.40;;;16.80;99.90;;;;;;6246646;28;20683;-70
2021/08/08 04:50:22;;;;;;;0.60;0.60;;;16.70;99.90;;;;;;6247720;28;20180;-69
2021/08/08 04:53:27;;;;;;;0.87;0.67;;;16.70;99.90;;;;;;6262976;28;20330;-69
2021/08/08 04:56:30;;;;;;;2.33;0.60;;;16.70;99.90;;;;;;6245822;28;20219;-71
2021/08/08 04:59:33;;;;;;;0.83;0.50;;;16.70;99.90;;;;;;6247118;28;20203;-70
2021/08/08 05:02:36;;;;;;;0.60;0.57;;;16.70;99.90;;;;;;6262142;28;20725;-69
2021/08/08 05:05:39;;;;;;;0.70;0.50;;;16.70;99.90;;;;;;6245644;28;20628;-71
2021/08/08 05:08:42;;;;;;;1.00;0.70;;;16.70;99.90;;;;;;6262063;28;20211;-71
2021/08/08 05:11:44;;;;;;;3.00;0.60;;;16.70;99.90;;;;;;6245386;28;20199;-71
2021/08/08 05:14:47;;;;;;;0.80;0.60;;;16.70;99.90;;;;;;6261889;28;20213;-71
2021/08/08 05:17:50;;;;;;;1.90;0.70;;;16.80;99.90;;;;;;6245378;28;20349;-71
2021/08/08 05:20:53;;;;;;;2.40;0.60;;;16.70;99.90;;;;;;6261919;28;20663;-71
2021/08/08 05:23:55;;;;;;;1.30;0.60;;;16.70;99.90;;;;;;6245110;28;20215;-71
2021/08/08 05:26:58;;;;;;;0.73;0.53;;;16.70;99.90;;;;;;6245235;28;20809;-71
2021/08/08 05:30:02;;;;;;;0.63;0.60;;;16.70;99.90;;;;;;6245027;28;20699;-71
2021/08/08 05:33:05;;;;;;;1.20;0.50;;;16.70;99.90;;;;;;6261841;28;20266;-71
2021/08/08 05:36:08;;;;;;;0.40;0.40;;;16.60;99.90;;;;;;6261381;28;20299;-71
2021/08/08 05:39:10;;;;;;;1.83;0.77;;;16.50;99.90;;;;;;6261270;28;20200;-70
2021/08/08 05:42:16;;;;;;;0.83;0.67;;;16.60;99.90;;;;;;6246031;28;20582;-71
2021/08/08 05:45:21;;;;;;;0.40;0.33;;;16.70;99.90;;;;;;6243973;28;20303;-70
2021/08/08 05:48:25;;;;;;;1.80;0.40;;;16.70;99.90;;;;;;6244930;28;20201;-70
2021/08/08 05:51:27;;;;;;;2.17;0.50;;;16.90;99.90;;;;;;6244527;28;20204;-71
2021/08/08 05:54:32;;;;;;;1.20;0.60;;;16.90;99.90;;;;;;6260937;28;20213;-72
2021/08/08 05:57:35;;;;;;;0.70;0.60;;;17.00;99.90;;;;;;6244491;28;20226;-70
2021/08/08 06:00:37;;;;;;;0.87;0.57;;;17.00;99.90;;;;;;6245536;28;20275;-70
2021/08/08 06:03:40;;;;;;;0.70;0.70;;;17.00;99.90;;;;;;6245702;28;20656;-70
2021/08/08 06:06:43;;;;;;;0.50;0.50;;;17.10;99.90;;;;;;6244202;28;20195;-71
2021/08/08 06:09:45;;;;;;;0.60;0.60;;;17.10;99.90;;;;;;6244205;28;20192;-70
2021/08/08 06:12:47;;;;;;;1.83;0.87;;;17.10;99.90;;;;;;6245408;28;20200;-69
2021/08/08 06:15:50;;;;;;;2.50;0.70;;;17.10;99.90;;;;;;6243981;28;20224;-70
2021/08/08 06:18:53;;;;;;;1.60;0.60;;;17.10;99.90;;;;;;6244226;28;20221;-70
2021/08/08 06:21:55;;;;;;;0.70;0.70;;;17.20;99.90;;;;;;6243891;28;20560;-70
2021/08/08 06:24:57;;;;;;;0.60;0.60;;;17.10;99.90;;;;;;6244016;28;20204;-70
2021/08/08 06:27:59;;;;;;;0.63;0.50;;;17.10;99.90;;;;;;6244003;28;20205;-70
2021/08/08 06:31:02;;;;;;;0.50;0.50;;;17.10;99.90;;;;;;6243877;28;21038;-70
2021/08/08 06:34:04;;;;;;;0.50;0.50;;;17.20;99.90;;;;;;6260498;28;20196;-70
2021/08/08 06:37:06;;;;;;;0.40;0.40;;;17.30;99.90;;;;;;6243696;28;20701;-70
2021/08/08 06:40:10;;;;;;;0.73;0.40;;;17.50;99.90;;;;;;6245229;28;20263;-70
2021/08/08 06:43:13;;;;;;;0.70;0.63;;;17.60;99.90;;;;;;6243890;28;20566;-70
2021/08/08 06:46:18;;;;;;;0.93;0.40;;;17.70;99.90;;;;;;6243785;28;20207;-70
2021/08/08 06:49:22;;;;;;;0.60;0.60;;;17.80;99.90;;;;;;6244090;28;20590;-71
2021/08/08 06:52:24;;;;;;;0.47;0.40;;;18.00;99.90;;;;;;6243422;28;20211;-70
2021/08/08 06:55:27;;;;;;;0.50;0.50;;;17.90;99.90;;;;;;6244899;28;20757;-70
2021/08/08 06:58:29;;;;;;;1.57;0.60;;;18.00;99.90;;;;;;6265319;28;20203;-71
2021/08/08 07:01:32;;;;;;;1.27;0.50;;;18.10;99.90;;;;;;6265158;28;20302;-70
2021/08/08 07:04:34;;;;;;;1.10;0.60;;;18.10;99.90;;;;;;6250162;28;20184;-70
2021/08/08 07:07:37;;;;;;;0.73;0.70;;;18.10;99.90;;;;;;6250043;28;20215;-71
2021/08/08 07:10:39;;;;;;;1.50;0.50;;;18.00;99.90;;;;;;6265021;28;20187;-70
2021/08/08 07:13:42;;;;;;;2.60;0.60;;;18.00;99.90;;;;;;6265152;28;20204;-70
2021/08/08 07:16:46;;;;;;;0.97;0.50;;;17.90;99.90;;;;;;6249408;28;20246;-70
2021/08/08 07:19:48;;;;;;;2.67;0.50;;;17.70;99.90;;;;;;6248274;28;20244;-70
2021/08/08 07:22:51;;;;;;;0.67;0.67;;;17.70;99.90;;;;;;6249294;28;20195;-70
2021/08/08 07:25:55;;;;;;;0.80;0.40;;;17.70;99.90;;;;;;6264774;28;20192;-70
2021/08/08 07:28:57;;;;;;;1.23;0.50;;;17.70;99.90;;;;;;6264979;28;20200;-70
2021/08/08 07:32:00;;;;;;;3.70;0.80;;;17.70;99.90;;;;;;6247959;28;20238;-70
2021/08/08 07:35:04;;;;;;;0.60;0.50;;;17.70;99.90;;;;;;6264430;28;20239;-70
2021/08/08 07:38:08;;;;;;;0.70;0.70;;;17.80;99.90;;;;;;6265038;28;20350;-70
2021/08/08 07:41:11;;;;;;;3.90;0.50;;;18.00;99.90;;;;;;6247616;28;20192;-71
2021/08/08 07:44:15;;;;;;;1.00;0.60;;;18.30;99.90;;;;;;6249100;28;20560;-71
2021/08/08 07:47:19;;;;;;;1.17;0.70;;;18.50;99.90;;;;;;6248935;28;20215;-70
2021/08/08 07:50:24;;;;;;;1.23;0.50;;;18.70;99.90;;;;;;6247398;28;20242;-71
2021/08/08 07:53:27;;;;;;;2.10;0.43;;;18.70;99.90;;;;;;6247396;28;20188;-70
2021/08/08 07:56:31;;;;;;;0.57;0.40;;;18.80;99.90;;;;;;6247489;28;20222;-70
2021/08/08 07:59:35;;;;;;;0.70;0.40;;;18.80;99.90;;;;;;6247400;28;20199;-69
2021/08/08 08:02:38;;;;;;;1.13;0.67;;;18.80;99.90;;;;;;6247447;28;20191;-71
2021/08/08 08:05:41;;;;;;;0.77;0.60;;;18.70;99.90;;;;;;6263782;28;20205;-70
2021/08/08 08:08:43;;;;;;;0.47;0.40;;;18.70;99.90;;;;;;6247401;28;20326;-71
2021/08/08 08:11:47;;;;;;;0.97;0.60;;;18.70;99.90;;;;;;6247388;28;20195;-71
2021/08/08 08:14:50;;;;;;;0.50;0.50;;;18.80;99.90;;;;;;6246857;28;20215;-71
2021/08/08 08:17:53;;;;;;;0.40;0.40;;;18.70;99.90;;;;;;6246720;28;20204;-71
2021/08/08 08:20:58;;;;;;;0.50;0.50;;;18.70;99.90;;;;;;6246940;28;20290;-71
2021/08/08 08:24:00;;;;;;;0.60;0.60;;;18.80;99.90;;;;;;6263462;28;20246;-71
2021/08/08 08:27:02;;;;;;;1.47;0.53;;;18.70;99.90;;;;;;6248494;28;20426;-71
2021/08/08 08:30:06;;;;;;;1.33;0.50;;;18.80;99.90;;;;;;6247834;28;20722;-71
2021/08/08 08:33:10;;;;;;;0.67;0.60;;;18.80;99.90;;;;;;6246291;28;20196;-69
2021/08/08 08:36:17;;;;;;;0.70;0.40;;;18.80;99.90;;;;;;6247817;28;20307;-71
2021/08/08 08:39:20;;;;;;;1.17;0.70;;;18.80;99.90;;;;;;6246408;28;20196;-70
2021/08/08 08:42:24;;;;;;;0.40;0.40;;;18.80;99.90;;;;;;6263128;28;20222;-71
2021/08/08 08:45:27;;;;;;;0.57;0.50;;;18.80;99.90;;;;;;6246160;28;20200;-71
2021/08/08 08:48:32;;;;;;;0.50;0.50;;;18.80;99.90;;;;;;6229769;28;20275;-71
2021/08/08 08:51:41;;;;;;;0.60;0.60;;;18.70;99.90;;;;;;6246260;28;20559;-70
2021/08/08 08:54:44;;;;;;;0.67;0.50;;;18.70;99.90;;;;;;6247556;28;20747;-71
2021/08/08 08:57:47;;;;;;;2.93;0.60;;;18.50;99.90;;;;;;6262502;28;20227;-70
2021/08/08 09:00:51;;;;;;;0.90;0.50;;;18.50;99.90;;;;;;6245520;28;20227;-71
2021/08/08 09:03:53;;;;;;;0.40;0.40;;;18.50;99.90;;;;;;6247171;28;20192;-70
2021/08/08 09:06:58;;;;;;;2.27;0.60;;;18.40;99.90;;;;;;6247144;28;20219;-70
2021/08/08 09:10:01;;;;;;;0.97;0.60;;;18.40;99.90;;;;;;6262450;28;20208;-71
2021/08/08 09:13:06;;;;;;;0.53;0.47;;;18.30;99.90;;;;;;6262316;28;20548;-71
2021/08/08 09:16:14;;;;;;;1.43;0.70;;;18.30;99.90;;;;;;6246978;28;20236;-71
2021/08/08 09:19:24;;;;;;;0.60;0.60;;;18.30;99.90;;;;;;6246838;28;20371;-71
2021/08/08 09:22:36;;;;;;;1.30;0.67;;;18.30;99.90;;;;;;6245782;28;20212;-71
2021/08/08 09:25:53;;;;;;;0.80;0.70;;;18.30;99.90;;;;;;6262114;28;20204;-70
2021/08/08 09:29:11;;;;;;;1.23;0.40;;;18.40;99.90;;;;;;6246877;28;20656;-70
2021/08/08 09:32:15;;;;;;;0.80;0.63;;;18.60;99.90;;;;;;6245425;28;20207;-70
2021/08/08 09:35:20;;;;;;;0.93;0.50;;;18.70;99.90;;;;;;6261643;28;20224;-70
2021/08/08 09:38:23;;;;;;;1.23;0.50;;;18.80;99.90;;;;;;6261949;28;20329;-69
2021/08/08 09:41:25;;;;;;;0.77;0.50;;;18.90;99.90;;;;;;6245137;28;20220;-70
2021/08/08 09:44:27;;;;;;;0.70;0.70;;;19.00;99.90;;;;;;6246122;28;20199;-70
2021/08/08 09:47:39;;;;;;;1.53;0.67;;;19.10;99.90;;;;;;6246304;28;20656;-70
2021/08/08 09:50:44;;;;;;;0.73;0.50;;;19.20;99.90;;;;;;6245338;28;20288;-70
2021/08/08 09:53:55;;;;;;;1.47;0.70;;;19.10;99.90;;;;;;6246080;28;20196;-70
2021/08/08 09:56:59;;;;;;;1.40;0.60;;;19.10;99.90;;;;;;6244854;28;20216;-70
2021/08/08 10:00:02;;;;;;;0.70;0.70;;;19.20;99.90;;;;;;6246407;28;20188;-70
2021/08/08 10:03:15;;;;;;;0.67;0.67;;;19.30;99.90;;;;;;6246527;28;20188;-71
2021/08/08 10:06:19;;;;;;;0.53;0.53;;;19.40;99.90;;;;;;6245475;28;20188;-70
2021/08/08 10:09:22;;;;;;;0.87;0.60;;;19.40;99.90;;;;;;6261204;28;20203;-72
2021/08/08 10:12:48;;;;;;;0.80;0.70;;;19.50;99.90;;;;;;6236726;28;20192;-71
2021/08/08 10:15:52;;;;;;;0.60;0.60;;;19.60;99.90;;;;;;6253133;28;20269;-71
2021/08/08 10:18:58;;;;;;;0.50;0.50;;;19.60;99.90;;;;;;6244651;28;20210;-70
2021/08/08 10:22:00;;;;;;;0.67;0.67;;;19.60;99.90;;;;;;6245792;28;20179;-70
2021/08/08 10:25:03;;;;;;;1.00;0.70;;;19.70;99.90;;;;;;6245778;28;20293;-70
2021/08/08 10:28:09;;;;;;;2.20;0.90;;;19.80;99.90;;;;;;6245780;28;20195;-71
2021/08/08 10:31:17;;;;;;;2.73;0.60;;;19.90;99.90;;;;;;6243534;28;20551;-72
2021/08/08 10:34:30;;;;;;;2.60;0.60;;;20.10;99.90;;;;;;6244125;28;20188;-71
2021/08/08 10:37:32;;;;;;;1.23;0.70;;;20.30;99.90;;;;;;6244072;28;20216;-70
2021/08/08 10:40:40;;;;;;;0.73;0.43;;;20.40;99.90;;;;;;6245490;28;20202;-71
2021/08/08 10:43:45;;;;;;;0.83;0.63;;;20.60;99.90;;;;;;6245389;28;20196;-70
2021/08/08 10:46:53;;;;;;;0.87;0.70;;;20.70;99.90;;;;;;6245509;28;20200;-71
2021/08/08 10:50:15;;;;;;;2.20;0.80;;;20.80;99.90;;;;;;6244328;28;20599;-70
2021/08/08 10:53:26;;;;;;;1.73;0.67;;;21.00;99.90;;;;;;6243819;28;20250;-71
2021/08/08 10:56:43;;;;;;;1.30;0.60;;;21.00;99.90;;;;;;6243649;28;20216;-70
2021/08/08 10:59:48;;;;;;;1.07;0.77;;;21.10;99.90;;;;;;6260155;28;20343;-71
2021/08/08 11:02:50;;;;;;;1.83;0.70;;;21.20;99.90;;;;;;6260096;28;20196;-70
2021/08/08 11:05:53;;;;;;;1.60;0.70;;;21.20;99.90;;;;;;6243811;28;20198;-69
2021/08/08 11:09:00;;;;;;;0.83;0.70;;;21.30;99.90;;;;;;6244932;28;20283;-69
2021/08/08 11:12:03;;;;;;;0.63;0.60;;;21.20;99.90;;;;;;6244720;28;20532;-70
2021/08/08 11:15:09;;;;;;;0.60;0.53;;;21.20;99.90;;;;;;6243346;28;20232;-69
2021/08/08 11:18:13;;;;;;;1.63;0.80;;;21.20;99.90;;;;;;6244417;28;20687;-68
2021/08/08 11:21:15;;;;;;;0.83;0.60;;;21.20;99.90;;;;;;6244584;28;20311;-69
2021/08/08 11:24:17;;;;;;;0.70;0.67;;;21.20;99.90;;;;;;6244846;28;20640;-69
2021/08/08 11:27:32;;;;;;;1.07;0.80;;;21.30;99.90;;;;;;6243111;28;20651;-68
2021/08/08 11:30:43;;;;;;;1.03;0.70;;;21.20;99.90;;;;;;6243346;28;20183;-70
2021/08/08 11:33:46;;;;;;;1.33;0.70;;;21.10;99.90;;;;;;6243107;28;20193;-69
2021/08/08 11:36:49;;;;;;;0.70;0.70;;;21.00;99.90;;;;;;6243033;28;20230;-69
2021/08/08 11:39:51;;;;;;;0.70;0.70;;;21.00;99.90;;;;;;6244533;28;20601;-68
2021/08/08 11:43:00;;;;;;;4.17;1.00;;;20.90;99.90;;;;;;6246422;28;20196;-68
2021/08/08 11:46:02;;;;;;;0.60;0.60;;;20.80;99.90;;;;;;6247680;28;20196;-69
2021/08/08 11:49:20;;;;;;;1.10;0.87;;;20.80;99.90;;;;;;6249115;28;20188;-70
2021/08/08 11:52:22;;;;;;;1.13;0.80;;;20.90;99.90;;;;;;6248545;28;20272;-68
2021/08/08 11:55:25;;;;;;;0.83;0.60;;;20.90;99.90;;;;;;6264079;28;20602;-70
2021/08/08 11:58:27;;;;;;;0.70;0.57;;;20.90;99.90;;;;;;6247297;28;20578;-68
2021/08/08 12:01:30;;;;;;;0.80;0.80;;;21.10;99.90;;;;;;6263723;28;20207;-68
2021/08/08 12:04:34;;;;;;;1.73;0.83;;;21.20;99.90;;;;;;6263570;28;20666;-68
2021/08/08 12:07:37;;;;;;;1.37;0.70;;;21.40;99.90;;;;;;6247406;28;20203;-68
2021/08/08 12:10:40;;;;;;;2.10;0.87;;;21.40;99.90;;;;;;6247214;28;20232;-69
2021/08/08 12:13:42;;;;;;;2.17;0.90;;;21.50;99.90;;;;;;6248130;28;20652;-68
2021/08/08 12:16:44;;;;;;;0.60;0.60;;;21.70;99.90;;;;;;6263380;28;20633;-69
2021/08/08 12:19:49;;;;;;;1.00;0.70;;;21.90;99.90;;;;;;6247954;28;20617;-68
2021/08/08 12:23:03;;;;;;;1.13;0.50;;;22.00;99.90;;;;;;6247942;28;20329;-68
2021/08/08 12:26:05;;;;;;;0.67;0.60;;;22.10;99.90;;;;;;6246710;28;20546;-69
2021/08/08 12:29:08;;;;;;;0.60;0.50;;;22.20;99.90;;;;;;6247888;28;20184;-69
2021/08/08 12:32:18;;;;;;;1.83;0.83;;;22.30;99.90;;;;;;6247486;28;20184;-69
2021/08/08 12:35:22;;;;;;;1.83;0.60;;;22.40;99.90;;;;;;6262980;28;20200;-71
2021/08/08 12:38:25;;;;;;;1.33;0.87;;;22.40;99.90;;;;;;6246559;28;20675;-70
2021/08/08 12:41:40;;;;;;;0.67;0.60;;;22.40;99.90;;;;;;6247456;28;20274;-69
2021/08/08 12:44:43;;;;;;;1.00;0.73;;;22.40;99.90;;;;;;6247476;28;20323;-69
2021/08/08 12:47:57;;;;;;;0.60;0.50;;;22.40;99.90;;;;;;6262792;28;20993;-71
2021/08/08 12:51:00;;;;;;;0.73;0.50;;;22.50;99.90;;;;;;6246147;28;20297;-70
2021/08/08 12:54:03;;;;;;;0.67;0.50;;;22.80;99.90;;;;;;6245262;28;20246;-69
2021/08/08 12:57:05;;;;;;;0.60;0.60;;;23.10;99.90;;;;;;6245901;28;20805;-71
2021/08/08 13:00:09;;;;;;;1.30;0.70;;;23.20;99.90;;;;;;6262428;28;20188;-71
2021/08/08 13:03:11;;;;;;;1.60;0.70;;;23.20;99.90;;;;;;6245825;28;20679;-70
2021/08/08 13:06:15;;;;;;;4.13;1.23;;;23.10;99.90;;;;;;6245774;28;20565;-70
2021/08/08 13:09:18;;;;;;;1.03;0.70;;;23.00;99.90;;;;;;6245653;28;20195;-70
2021/08/08 13:12:20;;;;;;;0.67;0.63;;;22.90;99.90;;;;;;6246657;28;20189;-69
2021/08/08 13:15:22;;;;;;;0.90;0.70;;;22.80;99.90;;;;;;6261800;28;20250;-69
2021/08/08 13:18:25;;;;;;;1.00;0.67;;;22.80;99.90;;;;;;6245701;28;20289;-72
2021/08/08 13:21:27;;;;;;;2.00;0.53;;;22.70;99.90;;;;;;6261714;28;20192;-69
2021/08/08 13:24:29;;;;;;;1.90;0.50;;;22.70;99.90;;;;;;6246278;28;20215;-70
2021/08/08 13:27:33;;;;;;;1.80;0.90;;;22.60;99.90;;;;;;6246549;28;20207;-69
2021/08/08 13:30:36;;;;;;;0.40;0.40;;;22.60;99.90;;;;;;6246397;28;20207;-70
2021/08/08 13:33:41;;;;;;;0.80;0.77;;;22.50;99.90;;;;;;6245286;28;20593;-70
2021/08/08 13:36:43;;;;;;;1.40;0.70;;;22.50;99.90;;;;;;6244864;28;20684;-70
2021/08/08 13:39:46;;;;;;;1.83;0.50;;;22.50;99.90;;;;;;6244956;28;20200;-71
2021/08/08 13:42:48;;;;;;;2.47;1.00;;;22.60;99.90;;;;;;6246008;28;20630;-70
2021/08/08 13:45:51;;;;;;;0.53;0.53;;;22.90;99.90;;;;;;6244798;28;20192;-70
2021/08/08 13:48:57;;;;;;;0.57;0.57;;;23.60;99.90;;;;;;6246086;28;20188;-69
2021/08/08 13:52:00;;;;;;;0.70;0.70;;;24.10;99.90;;;;;;6260856;28;20262;-70
2021/08/08 13:55:03;;;;;;;0.80;0.80;;;24.40;99.90;;;;;;6245869;28;20191;-70
2021/08/08 13:58:05;;;;;;;0.80;0.70;;;24.50;98.60;;;;;;6244720;28;20585;-74
2021/08/08 14:01:07;;;;;;;0.77;0.60;;;24.30;98.30;;;;;;6244450;28;20196;-71
2021/08/08 14:04:10;;;;;;;1.17;0.63;;;24.10;98.60;;;;;;6244029;28;20694;-71
2021/08/08 14:07:13;;;;;;;0.80;0.73;;;23.80;99.60;;;;;;6243821;28;20199;-70
2021/08/08 14:10:15;;;;;;;1.20;0.63;;;23.70;99.90;;;;;;6245489;28;20607;-71
2021/08/08 14:13:18;;;;;;;1.80;0.70;;;23.60;99.90;;;;;;6260683;28;20196;-71
2021/08/08 14:16:21;;;;;;;0.77;0.60;;;23.80;99.90;;;;;;6243947;28;20231;-71
2021/08/08 14:19:24;;;;;;;0.57;0.53;;;23.80;99.90;;;;;;6244110;28;20294;-71
2021/08/08 14:22:26;;;;;;;0.80;0.67;;;23.80;99.90;;;;;;6245167;28;20188;-71
2021/08/08 14:25:29;;;;;;;0.70;0.60;;;23.70;99.90;;;;;;6245318;28;20187;-72
2021/08/08 14:28:31;;;;;;;2.13;0.77;;;23.60;99.90;;;;;;6244063;28;20231;-71
2021/08/08 14:31:33;;;;;;;0.50;0.50;;;23.50;99.90;;;;;;6244970;28;20547;-70
2021/08/08 14:34:36;;;;;;;1.33;0.73;;;23.40;99.90;;;;;;6227440;28;20742;-71
2021/08/08 14:37:39;;;;;;;1.43;0.70;;;23.50;99.90;;;;;;6245038;28;20675;-71
2021/08/08 14:40:41;;;;;;;2.67;0.80;;;23.50;99.90;;;;;;6245208;28;20262;-70
2021/08/08 14:43:43;;;;;;;0.90;0.60;;;23.30;99.90;;;;;;6244007;28;20190;-70
2021/08/08 14:46:46;;;;;;;1.97;0.80;;;23.30;99.90;;;;;;6245519;28;20191;-71
2021/08/08 14:49:48;;;;;;;1.23;0.50;;;23.50;99.90;;;;;;6245336;28;20195;-70
2021/08/08 14:52:50;;;;;;;1.30;0.70;;;24.40;98.60;;;;;;6260471;28;20283;-71
2021/08/08 14:55:53;;;;;;;0.77;0.50;;;24.90;97.40;;;;;;6243754;28;20710;-71
2021/08/08 14:58:56;;;;;;;0.63;0.50;;;24.90;97.10;;;;;;6245167;28;20286;-71
2021/08/08 15:01:58;;;;;;;3.77;0.67;;;24.90;97.40;;;;;;6243426;28;20664;-71
2021/08/08 15:05:02;;;;;;;0.67;0.47;;;24.70;97.90;;;;;;6245041;28;20224;-71
2021/08/08 15:08:04;;;;;;;0.90;0.73;;;24.40;98.40;;;;;;6244854;28;20188;-70
2021/08/08 15:11:07;;;;;;;2.37;0.70;;;24.30;98.30;;;;;;6244720;28;20200;-72
2021/08/08 15:14:10;;;;;;;1.13;0.57;;;24.60;97.90;;;;;;6244677;28;20710;-71
2021/08/08 15:17:12;;;;;;;2.03;0.70;;;24.60;97.40;;;;;;6246927;28;20374;-71
2021/08/08 15:20:15;;;;;;;0.60;0.60;;;24.70;97.50;;;;;;6249666;28;20180;-71
2021/08/08 15:23:17;;;;;;;0.43;0.40;;;25.70;96.00;;;;;;6248031;28;20203;-71
2021/08/08 15:26:19;;;;;;;0.40;0.40;;;27.20;92.60;;;;;;6249402;28;20219;-72
2021/08/08 15:29:22;;;;;;;1.50;0.40;;;27.30;84.50;;;;;;6248056;28;20200;-71
2021/08/08 15:32:24;;;;;;;0.50;0.50;;;26.70;85.40;;;;;;6264260;28;20250;-70
2021/08/08 15:35:26;;;;;;;0.90;0.57;;;25.80;89.30;;;;;;6249438;28;20216;-72
2021/08/08 15:38:29;;;;;;;1.70;0.60;;;25.20;92.50;;;;;;6249114;28;20667;-72
2021/08/08 15:41:32;;;;;;;1.60;0.50;;;24.70;94.00;;;;;;6249068;28;20184;-72
2021/08/08 15:44:34;;;;;;;1.53;0.57;;;24.40;94.30;;;;;;6247964;28;20828;-71
2021/08/08 15:47:38;;;;;;;4.67;0.70;;;24.70;94.80;;;;;;6247334;28;20211;-70
2021/08/08 15:50:41;;;;;;;2.15;0.60;;;26.20;93.20;;;;;;6248976;28;20200;-70
2021/08/08 15:53:43;;;;;;;0.75;0.60;;;27.70;90.60;;;;;;6247388;28;20690;-71
2021/08/08 15:56:45;;;;;;;0.95;0.50;;;28.80;83.30;;;;;;6263766;28;20634;-71
2021/08/08 15:59:47;;;;;;;0.50;0.50;;;29.90;73.90;;;;;;6248563;28;20291;-70